Time;durP1;ratioP1;P1;durP2;ratioP2;P2;SDS_P1;SDS_P2;PMS_P1;PMS_P2;Temp;Humidity;BMP_temperature;BMP_pressure;BME280_temperature;BME280_humidity;BME280_pressure;Samples;Min_cycle;Max_cycle;Signal;HPM_P1;HPM_P2
2022/11/11 00:00:03;;;;;;;6.13;4.90;;;;;;;1.66;100.00;97730.59;5022814;28;20516;-77
2022/11/11 00:02:49;;;;;;;8.77;5.27;;;;;;;1.58;100.00;97702.28;5035561;28;20920;-77
2022/11/11 00:05:34;;;;;;;9.00;5.27;;;;;;;1.32;100.00;97719.25;5028711;28;20441;-77
2022/11/11 00:08:19;;;;;;;11.90;6.77;;;;;;;1.25;100.00;97729.03;5032438;28;20421;-77
2022/11/11 00:11:10;;;;;;;14.40;9.67;;;;;;;1.51;100.00;97745.94;5030884;28;20788;-77
2022/11/11 00:13:55;;;;;;;23.67;11.27;;;;;;;1.56;100.00;97746.81;5033069;28;20508;-77
2022/11/11 00:25:53;;;;;;;14.50;9.30;;;;;;;1.54;100.00;97696.75;5031556;28;20460;-77
2022/11/11 00:28:58;;;;;;;14.40;8.70;;;;;;;1.58;100.00;97710.88;5020784;28;20569;-77
2022/11/11 00:41:21;;;;;;;15.70;6.37;;;;;;;1.41;100.00;97704.84;5035689;28;20417;-77
2022/11/11 00:44:06;;;;;;;19.13;7.20;;;;;;;1.23;100.00;97676.41;5033013;28;20492;-77
2022/11/11 00:53:01;;;;;;;12.60;6.30;;;;;;;1.08;100.00;97713.34;5033300;28;20445;-77
2022/11/11 00:55:46;;;;;;;9.53;6.10;;;;;;;1.29;100.00;97743.19;5032157;28;20480;-77
2022/11/11 00:58:32;;;;;;;9.80;6.50;;;;;;;1.27;100.00;97734.81;5032470;28;20428;-77
2022/11/11 01:01:17;;;;;;;9.97;5.47;;;;;;;1.15;100.00;97738.22;5033947;28;20424;-77
2022/11/11 01:04:04;;;;;;;6.80;5.90;;;;;;;1.32;100.00;97750.53;5029349;28;21005;-77
2022/11/11 01:06:50;;;;;;;11.87;6.63;;;;;;;1.01;100.00;97736.13;5033382;28;20519;-78
2022/11/11 01:09:35;;;;;;;11.07;6.20;;;;;;;0.88;100.00;97732.75;5026710;28;20449;-77
2022/11/11 01:12:20;;;;;;;19.40;9.60;;;;;;;0.64;100.00;97733.78;5033788;28;20441;-77
2022/11/11 01:15:06;;;;;;;37.57;15.03;;;;;;;0.52;100.00;97718.16;5032190;28;20800;-77
2022/11/11 01:17:52;;;;;;;23.87;12.80;;;;;;;0.69;100.00;97728.72;5032400;28;20895;-77
2022/11/11 01:20:38;;;;;;;32.33;17.70;;;;;;;0.98;100.00;97763.41;5032711;28;20992;-76
2022/11/11 01:23:24;;;;;;;27.93;16.60;;;;;;;1.07;100.00;97745.59;5034143;28;20441;-77
2022/11/11 01:26:15;;;;;;;45.97;17.40;;;;;;;1.15;100.00;97758.28;5033460;28;20440;-77
2022/11/11 01:29:00;;;;;;;25.53;14.10;;;;;;;0.98;100.00;97723.56;5031932;28;20797;-77
2022/11/11 01:31:45;;;;;;;32.10;15.80;;;;;;;1.06;100.00;97728.41;5037209;28;20417;-77
2022/11/11 01:34:30;;;;;;;37.23;15.70;;;;;;;0.65;100.00;97674.72;5037150;28;20501;-77
2022/11/11 01:37:16;;;;;;;29.03;15.10;;;;;;;1.18;100.00;97729.16;5036163;28;20835;-77
2022/11/11 01:40:01;;;;;;;41.57;16.90;;;;;;;1.37;100.00;97768.88;5036825;28;20608;-77
2022/11/11 01:42:48;;;;;;;27.93;15.87;;;;;;;1.34;100.00;97766.75;5037901;28;20511;-77
2022/11/11 01:45:47;;;;;;;42.87;17.53;;;;;;;1.17;100.00;97738.78;5040576;28;20432;-77
2022/11/11 01:52:21;;;;;;;46.73;15.30;;;;;;;1.27;100.00;97771.28;5035278;28;20518;-77
2022/11/11 01:55:12;;;;;;;43.40;13.40;;;;;;;1.34;100.00;97769.34;5036429;28;20808;-77
2022/11/11 01:58:10;;;;;;;28.63;14.70;;;;;;;1.13;100.00;97748.09;5024640;28;21001;-77
2022/11/11 02:00:58;;;;;;;40.87;15.50;;;;;;;1.35;100.00;97768.31;5037562;28;20940;-77
2022/11/11 02:05:40;;;;;;;21.03;10.07;;;;;;;1.08;100.00;97740.19;5036105;28;20449;-77
2022/11/11 02:06:58;;;;;;;26.30;12.20;;;;;;;1.23;100.00;97762.34;5022735;28;20960;-77
2022/11/11 02:09:46;;;;;;;12.80;7.77;;;;;;;1.42;100.00;97748.13;5031339;28;20524;-77
2022/11/11 02:15:52;;;;;;;8.33;6.80;;;;;;;1.56;100.00;97778.09;5028899;28;20444;-77
2022/11/11 02:18:38;;;;;;;10.23;6.73;;;;;;;1.50;100.00;97752.97;5026245;28;20429;-77
2022/11/11 02:21:31;;;;;;;9.10;8.17;;;;;;;1.52;100.00;97758.75;5023681;28;20548;-79
2022/11/11 02:24:25;;;;;;;22.10;7.80;;;;;;;1.46;100.00;97738.81;5033711;28;20480;-76
2022/11/11 02:27:14;;;;;;;10.53;6.20;;;;;;;1.31;100.00;97722.91;5029246;28;20420;-76
2022/11/11 02:30:03;;;;;;;10.27;6.37;;;;;;;1.51;100.00;97766.81;5032779;28;20457;-77
2022/11/11 02:32:51;;;;;;;11.63;6.50;;;;;;;1.27;100.00;97725.19;5034498;28;20801;-77
2022/11/11 02:35:42;;;;;;;15.80;7.00;;;;;;;1.35;100.00;97737.06;5024592;28;20444;-77
2022/11/11 02:38:29;;;;;;;10.07;7.23;;;;;;;1.55;100.00;97760.88;5034439;28;20430;-77
2022/11/11 02:44:17;;;;;;;7.63;5.90;;;;;;;1.38;100.00;97729.56;5033507;28;20413;-77
2022/11/11 02:47:03;;;;;;;8.30;5.83;;;;;;;0.95;100.00;97716.22;5034248;28;20421;-77
2022/11/11 02:49:49;;;;;;;14.87;6.10;;;;;;;1.04;100.00;97731.22;5032459;28;20445;-77
2022/11/11 02:52:34;;;;;;;8.40;5.10;;;;;;;1.19;100.00;97754.19;5033978;28;20449;-77
2022/11/11 02:55:19;;;;;;;12.00;5.77;;;;;;;1.17;100.00;97725.75;5031413;28;20811;-77
2022/11/11 02:58:05;;;;;;;7.43;4.67;;;;;;;1.32;100.00;97750.53;5033632;28;20461;-77
2022/11/11 03:00:51;;;;;;;15.63;5.00;;;;;;;1.33;100.00;97746.91;5032650;28;20438;-77
2022/11/11 03:03:36;;;;;;;13.70;5.97;;;;;;;1.32;100.00;97745.31;5020285;28;20555;-77
2022/11/11 03:06:21;;;;;;;7.90;6.27;;;;;;;1.35;100.00;97753.47;5029970;28;20821;-77
2022/11/11 03:09:06;;;;;;;7.57;6.23;;;;;;;1.09;100.00;97733.16;5032919;28;20429;-76
2022/11/11 03:11:51;;;;;;;11.53;6.73;;;;;;;0.96;100.00;97730.81;5020868;28;20421;-76
2022/11/11 03:14:37;;;;;;;8.97;5.40;;;;;;;1.24;100.00;97758.72;5030625;28;20447;-76
2022/11/11 03:17:40;;;;;;;14.03;4.90;;;;;;;1.02;100.00;97748.13;5025939;28;20556;-76
2022/11/11 03:23:30;;;;;;;12.10;4.93;;;;;;;1.25;100.00;97736.84;5023999;28;20441;-76
2022/11/11 03:26:15;;;;;;;7.87;5.87;;;;;;;1.33;100.00;97733.88;5023705;28;21069;-77
2022/11/11 03:29:00;;;;;;;15.03;6.50;;;;;;;1.00;100.00;97687.66;5033867;28;20425;-77
2022/11/11 03:31:46;;;;;;;12.03;6.30;;;;;;;1.36;100.00;97733.44;5024034;28;20409;-77
2022/11/11 03:34:31;;;;;;;19.43;6.60;;;;;;;1.38;100.00;97739.19;5032037;28;20425;-75
2022/11/11 03:40:20;;;;;;;19.27;7.67;;;;;;;1.52;100.00;97766.56;5032026;28;20519;-77
2022/11/11 03:43:05;;;;;;;15.03;7.33;;;;;;;1.27;100.00;97753.03;5033478;28;20437;-77
2022/11/11 03:45:53;;;;;;;17.43;7.80;;;;;;;1.29;100.00;97779.66;5030672;28;20441;-76
2022/11/11 03:48:38;;;;;;;9.20;6.00;;;;;;;1.07;100.00;97759.44;5033027;28;20425;-77
2022/11/11 03:51:23;;;;;;;22.80;7.83;;;;;;;1.28;100.00;97781.47;5032008;28;20508;-77
2022/11/11 03:54:08;;;;;;;14.67;8.37;;;;;;;1.28;100.00;97746.81;5032998;28;20442;-77
2022/11/11 03:57:29;;;;;;;22.47;10.33;;;;;;;1.31;100.00;97749.75;5019138;28;20539;-76
2022/11/11 03:59:59;;;;;;;31.17;10.00;;;;;;;1.17;100.00;97730.97;5031718;28;20440;-77
2022/11/11 04:11:55;;;;;;;26.70;8.90;;;;;;;1.36;100.00;97780.31;5032160;28;21279;-77
2022/11/11 04:17:44;;;;;;;17.20;6.53;;;;;;;1.31;100.00;97739.31;5029611;28;20457;-77
2022/11/11 04:23:33;;;;;;;15.40;6.60;;;;;;;1.49;100.00;97761.81;5032440;28;20483;-77
2022/11/11 04:26:18;;;;;;;20.93;6.43;;;;;;;1.73;100.00;97801.59;5025987;28;20430;-77
2022/11/11 04:35:14;;;;;;;22.33;9.10;;;;;;;1.25;100.00;97748.06;5029655;28;20570;-77
2022/11/11 04:41:03;;;;;;;17.43;7.17;;;;;;;1.42;100.00;97785.41;5029462;28;20486;-77
2022/11/11 04:46:52;;;;;;;18.57;8.80;;;;;;;1.57;100.00;97797.91;5030741;28;20445;-77
2022/11/11 04:49:37;;;;;;;28.83;8.63;;;;;;;1.50;100.00;97775.66;5031857;28;20857;-77
2022/11/11 04:52:25;;;;;;;17.00;9.13;;;;;;;1.78;100.00;97804.31;5020092;28;20446;-77
2022/11/11 04:58:17;;;;;;;17.47;13.97;;;;;;;1.84;100.00;97799.97;5029108;28;20640;-76
2022/11/11 05:01:02;;;;;;;19.97;8.67;;;;;;;1.72;100.00;97785.16;5030314;28;21074;-77
2022/11/11 05:03:47;;;;;;;18.30;6.53;;;;;;;1.75;100.00;97812.63;5030726;28;20509;-76
2022/11/11 05:09:40;;;;;;;19.73;6.57;;;;;;;1.50;100.00;97796.50;5031631;28;20480;-76
2022/11/11 05:12:26;;;;;;;23.70;9.10;;;;;;;1.18;100.00;97770.84;5023842;28;20814;-77
2022/11/11 05:21:24;;;;;;;21.13;9.13;;;;;;;1.66;100.00;97829.66;5035723;28;20579;-76
2022/11/11 05:27:13;;;;;;;12.47;7.33;;;;;;;1.24;100.00;97800.41;5025496;28;20429;-76
2022/11/11 05:29:58;;;;;;;11.30;6.90;;;;;;;1.04;100.00;97744.25;5031188;28;20464;-76
2022/11/11 05:32:43;;;;;;;37.37;8.97;;;;;;;0.99;100.00;97762.38;5043367;28;20484;-76
2022/11/11 05:35:29;;;;;;;15.00;7.23;;;;;;;1.44;100.00;97819.03;5030259;28;20973;-76
2022/11/11 05:38:20;;;;;;;14.10;6.73;;;;;;;1.45;100.00;97844.06;5028476;28;20532;-78
2022/11/11 05:41:06;;;;;;;8.27;6.23;;;;;;;0.71;100.00;97736.28;5032299;28;20440;-77
2022/11/11 05:43:51;;;;;;;7.23;6.53;;;;;;;1.04;100.00;97783.31;5031460;28;20558;-77
2022/11/11 05:46:36;;;;;;;15.00;8.67;;;;;;;0.81;100.00;97734.69;5036173;28;20444;-77
2022/11/11 05:49:22;;;;;;;13.07;6.90;;;;;;;1.51;100.00;97858.00;5039246;28;20492;-77
2022/11/11 05:52:10;;;;;;;10.40;5.77;;;;;;;1.65;100.00;97869.78;5028872;28;20457;-77
2022/11/11 05:54:55;;;;;;;7.10;6.07;;;;;;;1.50;100.00;97846.78;5032681;28;20953;-77
2022/11/11 05:57:40;;;;;;;8.43;5.90;;;;;;;1.57;100.00;97886.53;5030688;28;20512;-77
2022/11/11 06:00:26;;;;;;;9.77;6.77;;;;;;;1.30;100.00;97844.56;5030784;28;20500;-76
2022/11/11 06:03:11;;;;;;;17.87;6.63;;;;;;;1.59;100.00;97887.09;5038364;28;20460;-77
2022/11/11 06:05:56;;;;;;;11.57;6.70;;;;;;;1.52;100.00;97857.78;5034582;28;20625;-77
2022/11/11 06:08:41;;;;;;;24.90;7.60;;;;;;;1.65;100.00;97867.16;5038285;28;20427;-76
2022/11/11 06:11:27;;;;;;;22.10;9.20;;;;;;;1.51;100.00;97863.22;5029330;28;20448;-76
2022/11/11 06:14:17;;;;;;;15.70;7.33;;;;;;;1.38;100.00;97853.84;5026745;28;20456;-77
2022/11/11 06:17:02;;;;;;;19.50;7.40;;;;;;;1.90;100.00;97885.91;5030119;28;20448;-76
2022/11/11 06:19:47;;;;;;;24.63;8.30;;;;;;;1.73;100.00;97864.97;5042981;28;20440;-78
2022/11/11 06:29:04;;;;;;;8.20;5.07;;;;;;;2.01;100.00;97886.91;5031151;28;21029;-77
2022/11/11 06:31:49;;;;;;;8.07;5.73;;;;;;;1.77;100.00;97873.94;5036412;28;20536;-78
2022/11/11 06:34:34;;;;;;;12.07;4.60;;;;;;;1.59;100.00;97862.84;5038735;28;20409;-78
2022/11/11 06:37:19;;;;;;;8.00;4.57;;;;;;;1.36;100.00;97856.69;5029811;28;20527;-78
2022/11/11 06:40:05;;;;;;;7.17;5.00;;;;;;;1.39;100.00;97871.06;5037932;28;20421;-77
2022/11/11 06:42:50;;;;;;;6.47;5.07;;;;;;;1.41;100.00;97884.66;5026940;28;20952;-77
2022/11/11 06:45:36;;;;;;;14.47;5.13;;;;;;;1.28;100.00;97864.03;5028547;28;20437;-77
2022/11/11 06:48:23;;;;;;;7.70;4.77;;;;;;;1.34;100.00;97889.19;5032032;28;20502;-76
2022/11/11 06:51:10;;;;;;;11.17;5.97;;;;;;;1.10;100.00;97864.97;5032974;28;20485;-75
2022/11/11 06:53:55;;;;;;;7.33;4.13;;;;;;;1.30;100.00;97880.22;5037643;28;20976;-75
2022/11/11 06:56:40;;;;;;;5.10;4.67;;;;;;;1.05;100.00;97865.63;5035324;28;20444;-75
2022/11/11 06:59:26;;;;;;;5.33;4.83;;;;;;;0.87;100.00;97829.31;5033946;28;20932;-75
2022/11/11 07:02:12;;;;;;;10.83;5.13;;;;;;;0.74;100.00;97827.72;5032955;28;20442;-76
2022/11/11 07:04:59;;;;;;;8.70;4.40;;;;;;;1.13;100.00;97914.78;5034420;28;20467;-76
2022/11/11 07:07:44;;;;;;;5.37;4.83;;;;;;;1.35;100.00;97904.59;5026708;28;20953;-79
2022/11/11 07:10:31;;;;;;;6.70;5.47;;;;;;;1.40;100.00;97906.50;5037695;28;20502;-79
2022/11/11 07:13:16;;;;;;;8.33;5.27;;;;;;;1.45;100.00;97911.81;5032468;28;20446;-79
2022/11/11 07:16:01;;;;;;;7.13;5.90;;;;;;;1.22;100.00;97875.38;5020213;28;20439;-79
2022/11/11 07:18:46;;;;;;;5.77;4.90;;;;;;;1.52;100.00;97902.09;5031542;28;20534;-79
2022/11/11 07:21:32;;;;;;;17.60;5.97;;;;;;;1.71;100.00;97895.69;5020657;28;20446;-78
2022/11/11 07:24:17;;;;;;;4.57;4.17;;;;;;;1.75;100.00;97906.47;5037538;28;20449;-78
2022/11/11 07:27:02;;;;;;;5.47;5.00;;;;;;;1.37;100.00;97866.09;5038095;28;20819;-78
2022/11/11 07:29:48;;;;;;;5.37;4.87;;;;;;;0.91;100.00;97788.75;5040298;28;20414;-78
2022/11/11 07:32:33;;;;;;;7.90;5.30;;;;;;;1.51;100.00;97877.06;5043536;28;20464;-78
2022/11/11 07:35:19;;;;;;;5.73;4.80;;;;;;;1.72;100.00;97917.34;5033252;28;20511;-77
2022/11/11 07:38:04;;;;;;;7.10;5.30;;;;;;;1.62;100.00;97897.09;5040410;28;20465;-78
2022/11/11 07:40:50;;;;;;;8.13;5.00;;;;;;;1.58;100.00;97890.72;5039287;28;20434;-78
2022/11/11 07:43:35;;;;;;;5.37;4.50;;;;;;;1.39;100.00;97868.47;5038007;28;20488;-78
2022/11/11 07:46:20;;;;;;;7.93;5.33;;;;;;;1.46;100.00;97882.13;5053976;28;20523;-78
2022/11/11 07:49:06;;;;;;;7.13;5.13;;;;;;;1.60;100.00;97893.09;5027869;28;20406;-78
2022/11/11 07:51:51;;;;;;;8.80;4.70;;;;;;;1.61;100.00;97921.56;5052551;28;20440;-79
2022/11/11 07:54:36;;;;;;;5.83;5.23;;;;;;;1.36;100.00;97882.72;5054074;28;20513;-79
2022/11/11 07:57:22;;;;;;;5.20;4.70;;;;;;;1.71;100.00;97920.97;5021116;28;20478;-79
2022/11/11 08:00:08;;;;;;;12.03;6.23;;;;;;;1.50;100.00;97883.28;5039364;28;20421;-79
2022/11/11 08:02:54;;;;;;;8.27;5.30;;;;;;;1.50;100.00;97898.91;5039669;28;20561;-79
2022/11/11 08:05:43;;;;;;;6.50;5.40;;;;;;;1.19;100.00;97853.16;5048502;28;20997;-79
2022/11/11 08:08:28;;;;;;;8.47;5.27;;;;;;;1.38;100.00;97901.53;5038238;28;20811;-78
2022/11/11 08:11:15;;;;;;;6.53;5.20;;;;;;;1.72;100.00;97912.13;5050901;28;20426;-79
2022/11/11 08:14:00;;;;;;;6.77;6.10;;;;;;;1.43;100.00;97869.56;5039703;28;20469;-79
2022/11/11 08:16:46;;;;;;;5.67;5.13;;;;;;;1.75;100.00;97922.91;5027463;28;20498;-79
2022/11/11 08:19:31;;;;;;;8.33;5.50;;;;;;;2.00;100.00;97922.63;5039446;28;20892;-79
2022/11/11 08:22:16;;;;;;;6.27;5.30;;;;;;;2.08;100.00;97944.94;5040633;28;20461;-79
2022/11/11 08:25:02;;;;;;;6.70;5.30;;;;;;;2.07;100.00;97930.31;5029856;28;20417;-79
2022/11/11 08:28:00;;;;;;;6.40;5.60;;;;;;;2.16;100.00;97917.69;5031574;28;20460;-78
2022/11/11 08:30:47;;;;;;;5.90;5.40;;;;;;;2.11;100.00;97914.97;5039565;28;20421;-79
2022/11/11 08:33:33;;;;;;;10.00;5.60;;;;;;;1.71;100.00;97842.75;5038999;28;20465;-79
2022/11/11 08:36:22;;;;;;;6.67;5.93;;;;;;;1.67;100.00;97826.00;5027913;28;20430;-77
2022/11/11 08:39:07;;;;;;;5.40;4.70;;;;;;;2.32;100.00;97907.31;5039835;28;20465;-79
2022/11/11 08:41:53;;;;;;;6.10;5.60;;;;;;;2.53;100.00;97942.38;5035531;28;20530;-78
2022/11/11 08:44:38;;;;;;;15.30;5.77;;;;;;;2.10;100.00;97918.63;5063840;28;20408;-79
2022/11/11 08:47:24;;;;;;;6.83;5.93;;;;;;;2.10;100.00;97902.97;5041699;28;20448;-78
2022/11/11 08:50:09;;;;;;;7.50;6.17;;;;;;;2.50;100.00;97944.66;5053150;28;20422;-79
2022/11/11 08:52:55;;;;;;;7.33;5.70;;;;;;;2.44;100.00;97924.75;5050934;28;20488;-78
2022/11/11 08:55:40;;;;;;;7.23;5.60;;;;;;;2.52;100.00;97924.34;5070776;28;20831;-79
2022/11/11 08:58:26;;;;;;;6.57;5.77;;;;;;;2.61;100.00;97942.00;5039771;28;20540;-79
2022/11/11 09:01:13;;;;;;;11.10;6.40;;;;;;;2.82;100.00;97976.31;5051746;28;20487;-79
2022/11/11 09:03:58;;;;;;;12.53;6.83;;;;;;;2.50;100.00;97942.06;5037183;28;20433;-79
2022/11/11 09:07:05;;;;;;;10.77;6.30;;;;;;;2.74;100.00;97958.41;5025649;28;20425;-79
2022/11/11 09:09:50;;;;;;;8.20;7.40;;;;;;;2.86;100.00;97973.00;5046140;28;20422;-79
2022/11/11 09:12:36;;;;;;;34.17;7.03;;;;;;;2.63;100.00;97931.31;5021951;28;20471;-79
2022/11/11 09:15:21;;;;;;;8.80;6.87;;;;;;;2.83;100.00;97954.41;5028566;28;20511;-78
2022/11/11 09:18:07;;;;;;;8.37;6.60;;;;;;;2.50;100.00;97936.84;5040562;28;20464;-79
2022/11/11 09:20:52;;;;;;;30.20;8.00;;;;;;;2.60;100.00;97932.59;5026469;28;20542;-79
2022/11/11 09:23:38;;;;;;;7.77;6.60;;;;;;;2.72;100.00;97940.38;5045752;28;20472;-79
2022/11/11 09:26:23;;;;;;;34.67;8.77;;;;;;;2.96;100.00;97961.94;5018593;28;20459;-78
2022/11/11 09:29:09;;;;;;;9.40;6.60;;;;;;;2.99;100.00;97971.91;5046691;28;20855;-79
2022/11/11 09:31:54;;;;;;;15.40;7.47;;;;;;;2.44;100.00;97888.19;5020569;28;20520;-79
2022/11/11 09:34:39;;;;;;;18.67;8.03;;;;;;;2.91;100.00;97944.34;5029728;28;20856;-79
2022/11/11 09:37:25;;;;;;;8.60;6.67;;;;;;;3.08;100.00;97952.22;5046721;28;20441;-79
2022/11/11 09:40:20;;;;;;;18.50;7.40;;;;;;;3.07;100.00;97949.81;5050929;28;20413;-79
2022/11/11 09:43:15;;;;;;;14.20;8.73;;;;;;;3.35;100.00;97975.09;5039420;28;20559;-79
2022/11/11 09:46:23;;;;;;;16.90;8.00;;;;;;;3.15;100.00;97949.41;5020013;28;20936;-79
2022/11/11 09:49:20;;;;;;;20.40;8.90;;;;;;;3.33;100.00;97974.50;5025119;28;20441;-79
2022/11/11 09:52:05;;;;;;;12.20;7.50;;;;;;;3.22;100.00;97976.19;5049524;28;20445;-79
2022/11/11 09:55:02;;;;;;;13.80;7.50;;;;;;;3.31;100.00;97976.56;5055300;28;20417;-79
2022/11/11 09:58:23;;;;;;;16.13;9.00;;;;;;;3.34;100.00;97984.75;5040040;28;20491;-79
2022/11/11 10:01:17;;;;;;;10.40;8.23;;;;;;;3.32;100.00;97958.03;5045917;28;20478;-79
2022/11/11 10:04:19;;;;;;;11.13;8.20;;;;;;;3.57;100.00;97983.78;5031380;28;20468;-79
2022/11/11 10:07:27;;;;;;;10.67;9.10;;;;;;;3.47;100.00;97966.13;5030972;28;20976;-79
2022/11/11 10:10:30;;;;;;;11.20;8.80;;;;;;;3.64;100.00;97991.47;5052727;28;20439;-79
2022/11/11 10:13:33;;;;;;;9.67;8.47;;;;;;;3.49;100.00;97966.69;5029596;28;20508;-79
2022/11/11 10:16:30;;;;;;;17.90;9.83;;;;;;;3.70;100.00;97990.50;5044604;28;20503;-79
2022/11/11 10:19:40;;;;;;;28.57;11.00;;;;;;;3.59;100.00;97986.94;5040636;28;20549;-79
2022/11/11 10:22:37;;;;;;;19.97;8.67;;;;;;;3.59;100.00;97981.69;5053330;28;20465;-79
2022/11/11 10:25:26;;;;;;;14.27;11.37;;;;;;;3.64;100.00;97981.00;5050134;28;20421;-79
2022/11/11 10:28:16;;;;;;;16.50;13.43;;;;;;;3.64;100.00;97960.06;5029662;28;20445;-79
2022/11/11 10:31:10;;;;;;;20.13;10.50;;;;;;;3.64;100.00;97975.78;5041869;28;20438;-79
2022/11/11 10:34:01;;;;;;;14.40;10.87;;;;;;;3.88;100.00;97968.50;5044999;28;21249;-79
2022/11/11 10:36:52;;;;;;;27.33;12.63;;;;;;;3.59;100.00;97921.56;5047693;28;20525;-79
2022/11/11 10:39:40;;;;;;;15.23;11.13;;;;;;;3.98;100.00;97971.25;5034086;28;20501;-79
2022/11/11 10:42:25;;;;;;;15.40;11.93;;;;;;;3.82;100.00;97942.28;5062660;28;20480;-78
2022/11/11 10:45:17;;;;;;;30.53;13.37;;;;;;;4.08;100.00;97966.94;5069777;28;20437;-80
2022/11/11 10:48:15;;;;;;;16.50;11.83;;;;;;;4.29;100.00;97943.63;5058454;28;20422;-79
2022/11/11 10:51:02;;;;;;;17.83;11.43;;;;;;;3.97;100.00;97939.03;5047092;28;20449;-79
2022/11/11 10:53:54;;;;;;;17.20;12.60;;;;;;;4.27;100.00;97975.25;5063017;28;20460;-79
2022/11/11 10:57:01;;;;;;;16.00;13.23;;;;;;;4.43;100.00;97965.75;5074276;28;20418;-79
2022/11/11 10:59:49;;;;;;;18.83;13.17;;;;;;;4.65;100.00;97963.09;5043053;28;20461;-80
2022/11/11 11:02:48;;;;;;;11.90;10.20;;;;;;;4.95;100.00;97960.78;5039876;28;20564;-79
2022/11/11 11:05:43;;;;;;;15.47;12.60;;;;;;;4.82;100.00;97926.31;5031461;28;20417;-79
2022/11/11 11:08:58;;;;;;;18.53;11.50;;;;;;;4.97;100.00;97945.59;5019837;28;20438;-79
2022/11/11 11:12:16;;;;;;;14.30;12.13;;;;;;;4.95;100.00;97962.59;5028726;28;20438;-80
2022/11/11 11:15:07;;;;;;;17.40;13.00;;;;;;;4.67;100.00;97969.69;5027231;28;20441;-79
2022/11/11 11:18:12;;;;;;;13.73;11.17;;;;;;;4.70;100.00;97971.81;5022631;28;20522;-79
2022/11/11 11:21:06;;;;;;;16.90;13.50;;;;;;;4.53;100.00;97947.50;5035562;28;20478;-80
2022/11/11 11:23:52;;;;;;;15.87;12.20;;;;;;;4.72;100.00;97968.94;5040098;28;21067;-79
2022/11/11 11:26:45;;;;;;;17.40;13.67;;;;;;;4.54;100.00;97949.13;5023123;28;20466;-79
2022/11/11 11:29:42;;;;;;;18.70;12.97;;;;;;;4.65;100.00;97937.69;5044703;28;20448;-80
2022/11/11 11:32:30;;;;;;;17.13;13.50;;;;;;;4.92;100.00;97965.69;5028037;28;20657;-79
2022/11/11 11:35:28;;;;;;;13.87;11.17;;;;;;;5.16;100.00;97966.16;5031947;28;20422;-80
2022/11/11 11:38:14;;;;;;;16.03;13.47;;;;;;;5.02;100.00;97952.69;5034932;28;20439;-79
2022/11/11 11:40:59;;;;;;;18.10;13.33;;;;;;;5.01;100.00;97927.53;5033235;28;20508;-79
2022/11/11 11:43:45;;;;;;;15.90;12.70;;;;;;;5.11;100.00;97942.53;5040355;28;20465;-79
2022/11/11 11:46:38;;;;;;;15.23;11.50;;;;;;;5.21;100.00;97967.03;5038569;28;20413;-79
2022/11/11 11:49:32;;;;;;;16.97;12.90;;;;;;;5.16;100.00;97961.72;5048348;28;20525;-79
2022/11/11 11:52:43;;;;;;;16.13;13.37;;;;;;;5.11;100.00;97947.78;5019087;28;20527;-80
2022/11/11 11:55:35;;;;;;;19.17;13.73;;;;;;;5.06;100.00;97938.03;5049716;28;20464;-80
2022/11/11 11:58:31;;;;;;;19.83;14.37;;;;;;;5.30;100.00;97944.50;5034051;28;20816;-79
2022/11/11 12:01:31;;;;;;;18.03;12.50;;;;;;;5.24;100.00;97942.13;5046309;28;20409;-80
2022/11/11 12:04:25;;;;;;;22.97;13.17;;;;;;;4.55;100.00;97853.00;5026716;28;20474;-80
2022/11/11 12:07:15;;;;;;;19.63;14.90;;;;;;;5.15;100.00;97920.81;5036918;28;20463;-80
2022/11/11 12:10:10;;;;;;;24.83;15.73;;;;;;;5.31;100.00;97930.34;5031287;28;20413;-80
2022/11/11 12:13:07;;;;;;;23.97;15.50;;;;;;;5.18;100.00;97907.19;5037706;28;20450;-79
2022/11/11 12:16:25;;;;;;;28.87;16.27;;;;;;;5.49;100.00;97934.44;5032374;28;20565;-79
2022/11/11 12:19:19;;;;;;;19.53;14.93;;;;;;;5.52;100.00;97933.91;5027487;28;20966;-80
2022/11/11 12:22:23;;;;;;;20.43;16.53;;;;;;;5.69;100.00;97938.19;5039441;28;20437;-79
2022/11/11 12:25:10;;;;;;;21.27;15.87;;;;;;;5.51;100.00;97944.66;5037982;28;20871;-80
2022/11/11 12:28:20;;;;;;;18.77;14.17;;;;;;;5.48;100.00;97942.56;5037434;28;20442;-79
2022/11/11 12:31:11;;;;;;;25.37;15.90;;;;;;;5.43;100.00;97932.00;5025960;28;20489;-79
2022/11/11 12:33:56;;;;;;;20.67;15.80;;;;;;;5.68;100.00;97928.75;5025636;28;20466;-80
2022/11/11 12:37:10;;;;;;;20.83;15.20;;;;;;;5.63;100.00;97927.69;5050016;28;20416;-80
2022/11/11 12:40:07;;;;;;;20.63;15.33;;;;;;;5.67;100.00;97922.72;5047102;28;20552;-80
2022/11/11 12:43:23;;;;;;;21.30;15.37;;;;;;;5.72;100.00;97921.94;5036072;28;21023;-80
2022/11/11 12:46:21;;;;;;;21.80;17.23;;;;;;;5.37;100.00;97883.19;5052872;28;20963;-79
2022/11/11 12:49:52;;;;;;;21.70;16.50;;;;;;;5.29;100.00;97890.50;5054529;28;20508;-79
2022/11/11 12:52:47;;;;;;;23.83;15.80;;;;;;;5.42;100.00;97891.88;5053019;28;20435;-79
2022/11/11 12:55:57;;;;;;;25.07;16.40;;;;;;;5.24;100.00;97884.44;5065011;28;20433;-79
2022/11/11 12:58:56;;;;;;;21.30;15.90;;;;;;;5.49;100.00;97928.38;5041961;28;20608;-80
2022/11/11 13:01:51;;;;;;;21.93;16.00;;;;;;;5.08;100.00;97865.19;5052144;28;20442;-80
2022/11/11 13:05:02;;;;;;;23.80;17.80;;;;;;;5.27;100.00;97894.41;5038839;28;20802;-80
2022/11/11 13:08:14;;;;;;;28.60;18.73;;;;;;;5.54;100.00;97912.66;5038820;28;20940;-80
2022/11/11 13:11:15;;;;;;;27.17;18.93;;;;;;;5.49;100.00;97902.94;5036664;28;20434;-80
2022/11/11 13:14:52;;;;;;;19.80;16.17;;;;;;;5.39;100.00;97889.75;5029332;28;20457;-80
2022/11/11 13:17:38;;;;;;;23.27;16.10;;;;;;;5.55;100.00;97904.53;5037847;28;20521;-79
2022/11/11 13:20:35;;;;;;;26.90;18.90;;;;;;;5.65;100.00;97914.31;5028478;28;20485;-80
2022/11/11 13:23:20;;;;;;;25.13;18.30;;;;;;;5.41;100.00;97889.50;5019975;28;21031;-79
2022/11/11 13:26:25;;;;;;;23.67;17.90;;;;;;;5.37;100.00;97881.38;5037613;28;20413;-80
2022/11/11 13:29:34;;;;;;;26.63;17.87;;;;;;;5.68;100.00;97911.16;5028774;28;20445;-80
2022/11/11 13:32:29;;;;;;;26.77;18.30;;;;;;;5.76;100.00;97907.28;5019320;28;20582;-80
2022/11/11 13:35:30;;;;;;;28.30;17.63;;;;;;;5.83;100.00;97920.94;5043218;28;20428;-80
2022/11/11 13:38:24;;;;;;;27.33;18.60;;;;;;;5.49;100.00;97866.22;5010751;28;21002;-80
2022/11/11 13:41:10;;;;;;;25.33;18.87;;;;;;;5.63;100.00;97879.66;5019995;28;20410;-79
2022/11/11 13:43:59;;;;;;;27.53;18.73;;;;;;;5.82;100.00;97899.16;5016515;28;20449;-79
2022/11/11 13:46:47;;;;;;;26.73;20.30;;;;;;;5.59;100.00;97874.13;5042783;28;20941;-78
2022/11/11 13:49:57;;;;;;;28.47;19.70;;;;;;;5.81;100.00;97897.59;5011316;28;20518;-78
2022/11/11 13:52:58;;;;;;;31.10;20.90;;;;;;;5.92;100.00;97911.56;5014459;28;20815;-78
2022/11/11 13:55:46;;;;;;;31.07;20.87;;;;;;;5.88;100.00;97910.50;5020630;28;20438;-78
2022/11/11 13:58:35;;;;;;;31.13;19.77;;;;;;;5.93;100.00;97915.78;5028687;28;20417;-78
2022/11/11 14:01:21;;;;;;;27.83;20.80;;;;;;;5.76;100.00;97873.94;5023815;28;20425;-78
2022/11/11 14:04:08;;;;;;;28.40;21.63;;;;;;;6.00;100.00;97907.66;5020168;28;20437;-78
2022/11/11 14:06:54;;;;;;;27.77;20.43;;;;;;;6.00;100.00;97912.91;5017994;28;20414;-78
2022/11/11 14:09:56;;;;;;;33.33;21.50;;;;;;;6.03;100.00;97901.91;5029966;28;20803;-78
2022/11/11 14:12:51;;;;;;;33.63;21.57;;;;;;;6.13;100.00;97901.91;5030814;28;20449;-78
2022/11/11 14:15:43;;;;;;;33.53;24.70;;;;;;;6.02;100.00;97900.34;5029822;28;20492;-78
2022/11/11 14:18:35;;;;;;;36.40;21.63;;;;;;;5.85;100.00;97874.22;5018781;28;20406;-78
2022/11/11 14:21:43;;;;;;;33.40;24.10;;;;;;;5.88;100.00;97900.78;5017106;28;20434;-78
2022/11/11 14:24:42;;;;;;;31.40;24.00;;;;;;;5.78;100.00;97876.31;5024371;28;20440;-78
2022/11/11 14:27:30;;;;;;;32.30;21.73;;;;;;;5.92;100.00;97906.31;5032994;28;20476;-78
2022/11/11 14:30:35;;;;;;;38.23;26.80;;;;;;;5.74;100.00;97885.72;5016192;28;20445;-78
2022/11/11 14:33:26;;;;;;;40.73;26.50;;;;;;;5.90;100.00;97898.72;5022512;28;20806;-78
2022/11/11 14:36:42;;;;;;;42.20;23.10;;;;;;;6.06;100.00;97886.41;5019577;28;20776;-78
2022/11/11 14:39:49;;;;;;;32.10;22.77;;;;;;;6.06;100.00;97890.88;5019948;28;20469;-78
2022/11/11 14:42:34;;;;;;;34.90;21.53;;;;;;;6.10;100.00;97905.06;5021663;28;20911;-78